Time;durP1;ratioP1;P1;durP2;ratioP2;P2;SDS_P1;SDS_P2;PMS_P1;PMS_P2;Temp;Humidity;BMP_temperature;BMP_pressure;BME280_temperature;BME280_humidity;BME280_pressure;Samples;Min_cycle;Max_cycle;Signal;HPM_P1;HPM_P2
2021/01/19 00:00:00;;;;;;;6.33;4.70;;;6.30;90.60;;;;;;5071302;28;20677;-49
2021/01/19 00:02:27;;;;;;;9.03;5.00;;;6.30;90.50;;;;;;5071143;28;20685;-49
2021/01/19 00:04:54;;;;;;;7.30;4.07;;;6.30;90.40;;;;;;5071188;28;21204;-49
2021/01/19 00:07:20;;;;;;;7.17;4.50;;;6.20;90.40;;;;;;5070746;28;20658;-50
2021/01/19 00:09:47;;;;;;;7.07;5.53;;;6.10;91.20;;;;;;5073177;28;21419;-50
2021/01/19 00:12:14;;;;;;;11.93;7.27;;;6.10;90.90;;;;;;5092681;28;20661;-49
2021/01/19 00:14:43;;;;;;;7.20;5.70;;;6.10;91.20;;;;;;5091430;28;20632;-50
2021/01/19 00:17:11;;;;;;;6.17;5.10;;;6.10;91.10;;;;;;5091809;28;20629;-49
2021/01/19 00:19:38;;;;;;;5.70;4.37;;;6.10;91.30;;;;;;5090615;28;20609;-47
2021/01/19 00:22:05;;;;;;;4.33;3.73;;;6.10;91.90;;;;;;5071795;28;20688;-49
2021/01/19 00:24:31;;;;;;;8.93;5.30;;;6.00;90.90;;;;;;5071366;28;20665;-49
2021/01/19 00:26:58;;;;;;;12.00;5.73;;;5.90;91.10;;;;;;5078882;28;20649;-49
2021/01/19 00:29:25;;;;;;;9.07;5.60;;;5.90;91.50;;;;;;5091354;28;20628;-49
2021/01/19 00:31:51;;;;;;;6.33;4.77;;;5.90;91.40;;;;;;5091469;28;20693;-49
2021/01/19 00:34:20;;;;;;;6.27;5.43;;;5.90;91.30;;;;;;5076797;28;20706;-50
2021/01/19 00:36:47;;;;;;;9.17;5.13;;;5.80;91.30;;;;;;5073614;28;20664;-49
2021/01/19 00:39:13;;;;;;;6.20;4.57;;;5.70;91.40;;;;;;5072775;28;20636;-49
2021/01/19 00:41:40;;;;;;;4.67;4.00;;;5.70;91.70;;;;;;5074292;28;20689;-49
2021/01/19 00:44:07;;;;;;;6.27;3.50;;;5.60;91.80;;;;;;5091107;28;20636;-47
2021/01/19 00:46:34;;;;;;;5.30;4.67;;;5.60;91.70;;;;;;5099931;28;20666;-47
2021/01/19 00:49:00;;;;;;;6.70;4.10;;;5.60;91.80;;;;;;5110527;28;20663;-47
2021/01/19 00:51:34;;;;;;;6.83;4.90;;;5.60;91.90;;;;;;5088436;28;20727;-47
2021/01/19 00:54:01;;;;;;;6.90;5.37;;;5.70;92.10;;;;;;5070140;28;20749;-47
2021/01/19 00:56:35;;;;;;;5.33;4.57;;;5.70;91.90;;;;;;5068367;28;20629;-47
2021/01/19 00:59:02;;;;;;;11.00;5.30;;;5.70;91.80;;;;;;5070159;28;20632;-48
2021/01/19 01:01:29;;;;;;;4.33;3.93;;;5.80;91.70;;;;;;5070282;28;20697;-48
2021/01/19 01:03:56;;;;;;;12.17;6.73;;;5.80;91.90;;;;;;5069997;28;20629;-48
2021/01/19 01:06:22;;;;;;;8.27;4.70;;;5.80;91.60;;;;;;5094746;28;20636;-48
2021/01/19 01:08:50;;;;;;;4.83;4.43;;;5.80;91.60;;;;;;5111217;28;21142;-49
2021/01/19 01:11:17;;;;;;;5.60;4.80;;;5.80;91.70;;;;;;5094683;28;20656;-49
2021/01/19 01:13:43;;;;;;;8.50;4.40;;;5.80;91.60;;;;;;5090754;28;20709;-49
2021/01/19 01:16:10;;;;;;;5.77;4.17;;;5.80;91.90;;;;;;5096281;28;20669;-49
2021/01/19 01:18:37;;;;;;;6.50;4.50;;;5.80;91.70;;;;;;5101974;28;20641;-48
2021/01/19 01:21:04;;;;;;;5.70;5.00;;;5.70;91.70;;;;;;5069809;28;20704;-49
2021/01/19 01:23:31;;;;;;;6.47;5.07;;;5.70;91.80;;;;;;5069565;28;20669;-49
2021/01/19 01:25:58;;;;;;;4.77;4.33;;;5.70;91.70;;;;;;5087481;28;20675;-48
2021/01/19 01:28:25;;;;;;;5.93;4.63;;;5.60;91.80;;;;;;5089997;28;20656;-48
2021/01/19 01:30:52;;;;;;;7.20;4.90;;;5.60;91.80;;;;;;5100143;28;20653;-49
2021/01/19 01:33:18;;;;;;;5.70;4.90;;;5.70;92.00;;;;;;5110189;28;20624;-48
2021/01/19 01:35:45;;;;;;;5.47;4.40;;;5.70;92.00;;;;;;5109209;28;21243;-48
2021/01/19 01:38:13;;;;;;;7.17;4.50;;;5.70;91.80;;;;;;5100110;28;21181;-49
2021/01/19 01:40:40;;;;;;;6.80;4.83;;;5.70;91.60;;;;;;5076042;28;20699;-48
2021/01/19 01:43:12;;;;;;;5.40;4.00;;;5.70;91.60;;;;;;5089626;28;20710;-49
2021/01/19 01:45:38;;;;;;;5.00;4.37;;;5.70;91.50;;;;;;5089739;28;20629;-49
2021/01/19 01:48:07;;;;;;;6.27;4.23;;;5.70;91.50;;;;;;5108231;28;21046;-49
2021/01/19 01:50:33;;;;;;;4.43;3.40;;;5.70;91.50;;;;;;5110040;28;20710;-49
2021/01/19 01:53:00;;;;;;;4.37;2.70;;;5.70;91.60;;;;;;5075990;28;20622;-49
2021/01/19 01:55:27;;;;;;;7.43;4.67;;;5.70;91.90;;;;;;5069768;28;20700;-49
2021/01/19 01:57:55;;;;;;;5.53;4.03;;;5.70;91.40;;;;;;5070038;28;20818;-49
2021/01/19 02:00:23;;;;;;;4.67;4.27;;;5.70;91.50;;;;;;5069137;28;20682;-49
2021/01/19 02:02:50;;;;;;;4.80;4.30;;;5.70;91.40;;;;;;5069152;28;21009;-49
2021/01/19 02:05:17;;;;;;;5.63;4.20;;;5.70;91.30;;;;;;5090029;28;21077;-49
2021/01/19 02:07:56;;;;;;;4.93;3.30;;;5.70;91.30;;;;;;5070363;28;21220;-48
2021/01/19 02:10:26;;;;;;;4.63;4.23;;;5.60;91.20;;;;;;5088233;28;20650;-49
2021/01/19 02:12:55;;;;;;;7.53;4.13;;;5.60;91.10;;;;;;5100287;28;20680;-49
2021/01/19 02:15:27;;;;;;;6.20;4.13;;;5.60;91.20;;;;;;5089515;28;20834;-49
2021/01/19 02:17:57;;;;;;;3.47;3.00;;;5.60;91.00;;;;;;5087537;28;20649;-48
2021/01/19 02:20:53;;;;;;;4.83;4.03;;;5.60;90.90;;;;;;5080155;28;20681;-49
2021/01/19 02:23:25;;;;;;;5.70;4.50;;;5.60;91.10;;;;;;5017618;28;20632;-48
2021/01/19 02:26:04;;;;;;;5.43;4.53;;;5.70;91.00;;;;;;5087613;28;20777;-48
2021/01/19 02:28:35;;;;;;;7.97;4.87;;;5.70;91.00;;;;;;5087313;28;20637;-49
2021/01/19 02:31:12;;;;;;;8.10;5.63;;;5.80;90.70;;;;;;5104297;28;20661;-48
2021/01/19 02:33:44;;;;;;;6.00;5.00;;;5.80;90.50;;;;;;5101456;28;20996;-52
2021/01/19 02:36:15;;;;;;;3.97;3.17;;;5.90;90.40;;;;;;5070929;28;20656;-48
2021/01/19 02:38:48;;;;;;;4.60;4.00;;;5.80;90.00;;;;;;5072518;28;20653;-48
2021/01/19 02:41:15;;;;;;;5.60;4.93;;;5.80;90.10;;;;;;5098055;28;20687;-48
2021/01/19 02:43:41;;;;;;;6.53;4.30;;;5.70;90.20;;;;;;5093934;27;20652;-48
2021/01/19 02:46:08;;;;;;;6.40;4.30;;;5.80;90.50;;;;;;5101342;28;20748;-48
2021/01/19 02:48:35;;;;;;;6.17;4.23;;;5.80;90.30;;;;;;5087635;28;20681;-49
2021/01/19 02:51:02;;;;;;;5.33;2.80;;;5.80;90.40;;;;;;5076928;28;21236;-48
2021/01/19 02:53:29;;;;;;;5.90;3.60;;;5.80;90.00;;;;;;5089143;28;20629;-48
2021/01/19 02:55:56;;;;;;;6.13;4.43;;;5.80;90.00;;;;;;5107867;28;20765;-48
2021/01/19 02:58:39;;;;;;;5.00;4.07;;;5.80;89.80;;;;;;5112911;28;20655;-48
2021/01/19 03:01:06;;;;;;;10.23;4.67;;;5.80;90.20;;;;;;5111167;28;21242;-48
2021/01/19 03:03:35;;;;;;;8.83;4.30;;;5.90;90.00;;;;;;5074137;28;21288;-48
2021/01/19 03:06:12;;;;;;;5.23;4.03;;;5.90;89.60;;;;;;5084274;28;21148;-49
2021/01/19 03:08:40;;;;;;;5.97;3.57;;;5.90;88.70;;;;;;5097463;28;20688;-48
2021/01/19 03:11:06;;;;;;;3.50;3.20;;;6.00;89.20;;;;;;5077010;28;20688;-50
2021/01/19 03:13:33;;;;;;;3.83;3.47;;;5.90;88.70;;;;;;5083878;28;20644;-49
2021/01/19 03:16:09;;;;;;;3.93;3.50;;;5.90;88.50;;;;;;5092499;28;20772;-49
2021/01/19 03:18:36;;;;;;;5.07;4.10;;;5.90;88.40;;;;;;5092465;28;20667;-49
2021/01/19 03:21:05;;;;;;;8.30;4.10;;;5.80;88.40;;;;;;5090650;28;20700;-48
2021/01/19 03:23:32;;;;;;;2.80;2.53;;;5.80;89.70;;;;;;5093050;28;20626;-49
2021/01/19 03:25:59;;;;;;;4.33;2.90;;;5.90;89.70;;;;;;5091229;28;20625;-49
2021/01/19 03:28:26;;;;;;;4.53;3.17;;;5.90;90.00;;;;;;5090666;28;20651;-49
2021/01/19 03:30:53;;;;;;;4.83;4.43;;;5.90;89.10;;;;;;5103871;28;20665;-48
2021/01/19 03:33:19;;;;;;;4.77;3.60;;;5.90;88.90;;;;;;5112617;28;20639;-48
2021/01/19 03:35:46;;;;;;;12.20;4.30;;;5.80;88.80;;;;;;5112491;28;20631;-49
2021/01/19 03:38:14;;;;;;;4.40;4.00;;;5.80;89.30;;;;;;5087872;28;20678;-48
2021/01/19 03:40:41;;;;;;;6.83;5.20;;;5.70;88.90;;;;;;5074933;28;20688;-48
2021/01/19 03:43:07;;;;;;;5.13;3.03;;;5.70;88.80;;;;;;5087058;28;20653;-48
2021/01/19 03:45:34;;;;;;;13.20;5.67;;;5.70;89.00;;;;;;5071955;28;20872;-48
2021/01/19 03:48:01;;;;;;;7.80;4.57;;;5.70;89.50;;;;;;5070297;28;20671;-48
2021/01/19 03:50:28;;;;;;;7.20;4.23;;;5.80;89.90;;;;;;5071379;28;21216;-48
2021/01/19 03:52:55;;;;;;;6.87;4.97;;;5.80;89.00;;;;;;5071748;28;20665;-49
2021/01/19 03:55:23;;;;;;;4.90;2.90;;;5.80;88.80;;;;;;5071030;28;20657;-48
2021/01/19 03:57:49;;;;;;;5.70;4.53;;;5.70;88.60;;;;;;5072424;28;20764;-48
2021/01/19 04:00:17;;;;;;;4.20;3.60;;;5.70;88.80;;;;;;5080820;28;20647;-48
2021/01/19 04:02:44;;;;;;;6.30;4.20;;;5.70;88.90;;;;;;5091319;28;20708;-48
2021/01/19 04:05:11;;;;;;;19.40;5.40;;;5.70;88.80;;;;;;5091663;28;20629;-48
2021/01/19 04:07:39;;;;;;;4.90;4.10;;;5.70;89.00;;;;;;5083792;28;20705;-48
2021/01/19 04:10:08;;;;;;;7.53;4.23;;;5.70;88.50;;;;;;5071120;28;20651;-49
2021/01/19 04:12:35;;;;;;;4.13;3.73;;;5.70;88.60;;;;;;5086129;28;21133;-48
2021/01/19 04:15:03;;;;;;;4.93;3.47;;;5.60;88.60;;;;;;5091082;28;20650;-49
2021/01/19 04:17:29;;;;;;;4.10;3.53;;;5.60;88.70;;;;;;5091722;28;20638;-49
2021/01/19 04:19:56;;;;;;;3.40;2.57;;;5.60;88.80;;;;;;5091208;28;20617;-49
2021/01/19 04:22:24;;;;;;;5.50;4.27;;;5.60;88.80;;;;;;5091087;28;20692;-48
2021/01/19 04:24:51;;;;;;;4.23;3.23;;;5.70;88.90;;;;;;5087995;28;20668;-49
2021/01/19 04:27:18;;;;;;;5.80;4.23;;;5.70;88.90;;;;;;5070401;28;20946;-49
2021/01/19 04:29:46;;;;;;;6.47;3.93;;;5.70;88.90;;;;;;5076130;28;20660;-49
2021/01/19 04:32:12;;;;;;;6.97;4.50;;;5.70;88.60;;;;;;5091952;28;20656;-49
2021/01/19 04:34:39;;;;;;;6.03;3.73;;;5.80;88.30;;;;;;5090599;28;20662;-48
2021/01/19 04:37:06;;;;;;;11.83;3.50;;;5.70;88.10;;;;;;5092367;28;21152;-49
2021/01/19 04:39:33;;;;;;;7.30;3.43;;;5.70;88.40;;;;;;5079098;28;20625;-49
2021/01/19 04:41:59;;;;;;;4.13;2.70;;;5.80;88.40;;;;;;5070796;28;20800;-48
2021/01/19 04:44:27;;;;;;;5.00;4.50;;;5.80;88.40;;;;;;5070578;28;21007;-50
2021/01/19 04:46:55;;;;;;;11.20;3.20;;;5.80;87.40;;;;;;5068406;28;20680;-49
2021/01/19 04:49:22;;;;;;;3.20;2.90;;;5.80;87.20;;;;;;5097103;28;20633;-49
2021/01/19 04:51:49;;;;;;;6.57;2.80;;;5.70;87.70;;;;;;5089158;28;20777;-49
2021/01/19 04:54:17;;;;;;;4.93;4.43;;;5.70;87.60;;;;;;5104352;28;20662;-49
2021/01/19 04:56:50;;;;;;;4.17;3.00;;;5.70;88.40;;;;;;5089626;28;20642;-49
2021/01/19 04:59:22;;;;;;;4.33;3.73;;;5.70;88.20;;;;;;5070731;28;21205;-49
2021/01/19 05:02:18;;;;;;;5.70;3.80;;;5.70;87.90;;;;;;5074170;28;20662;-48
2021/01/19 05:04:48;;;;;;;12.20;3.53;;;5.70;87.50;;;;;;5044406;28;20650;-49
2021/01/19 05:07:30;;;;;;;4.53;2.97;;;5.80;88.00;;;;;;5090915;28;20616;-49
2021/01/19 05:10:05;;;;;;;5.97;3.03;;;5.80;87.70;;;;;;5088715;28;21296;-50
2021/01/19 05:12:36;;;;;;;4.50;3.03;;;5.80;87.10;;;;;;5070787;28;20645;-49
2021/01/19 05:15:04;;;;;;;15.30;4.70;;;5.70;87.30;;;;;;5071295;28;20661;-49
2021/01/19 05:17:30;;;;;;;4.53;3.07;;;5.70;87.50;;;;;;5082175;28;20662;-49
2021/01/19 05:19:58;;;;;;;2.53;2.33;;;5.70;88.00;;;;;;5073914;28;20614;-49
2021/01/19 05:22:25;;;;;;;2.80;2.60;;;5.70;88.30;;;;;;5095335;28;20694;-50
2021/01/19 05:24:51;;;;;;;3.30;2.47;;;5.70;87.70;;;;;;5096768;28;21040;-49
2021/01/19 05:27:18;;;;;;;6.83;3.97;;;5.70;87.80;;;;;;5082165;28;20631;-49
2021/01/19 05:29:45;;;;;;;3.83;3.30;;;5.70;87.50;;;;;;5089907;28;20629;-49
2021/01/19 05:32:12;;;;;;;6.20;3.67;;;5.70;87.70;;;;;;5070777;28;20682;-49
2021/01/19 05:34:39;;;;;;;8.10;4.23;;;5.70;87.70;;;;;;5100375;28;20651;-50
2021/01/19 05:37:07;;;;;;;3.97;3.30;;;5.60;88.20;;;;;;5097785;28;20673;-49
2021/01/19 05:39:33;;;;;;;5.60;3.20;;;5.60;88.30;;;;;;5090022;28;20653;-49
2021/01/19 05:42:00;;;;;;;5.53;3.70;;;5.60;88.60;;;;;;5089860;28;20693;-50
2021/01/19 05:44:29;;;;;;;4.20;2.67;;;5.60;88.10;;;;;;5085638;28;20625;-50
2021/01/19 05:47:03;;;;;;;5.73;3.60;;;5.60;88.00;;;;;;5085631;28;20620;-49
2021/01/19 05:49:32;;;;;;;3.03;2.67;;;5.60;88.10;;;;;;5110188;28;20664;-49
2021/01/19 05:52:02;;;;;;;5.47;2.33;;;5.60;88.00;;;;;;5110024;28;20695;-48
2021/01/19 05:54:31;;;;;;;2.60;2.40;;;5.60;88.20;;;;;;5110287;28;21313;-49
2021/01/19 05:57:02;;;;;;;4.70;4.20;;;5.50;88.20;;;;;;5110128;28;20647;-48
2021/01/19 05:59:34;;;;;;;5.33;3.10;;;5.50;88.10;;;;;;5110685;28;20617;-49
2021/01/19 06:02:03;;;;;;;10.20;4.80;;;5.60;88.30;;;;;;5108425;28;20725;-49
2021/01/19 06:04:31;;;;;;;6.30;3.13;;;5.50;88.20;;;;;;5109948;28;20630;-49
2021/01/19 06:06:58;;;;;;;5.20;3.20;;;5.50;88.50;;;;;;5093683;28;21026;-48
2021/01/19 06:09:24;;;;;;;5.03;3.83;;;5.60;88.60;;;;;;5069406;28;20661;-49
2021/01/19 06:11:52;;;;;;;3.00;2.77;;;5.70;88.10;;;;;;5079521;28;20675;-49
2021/01/19 06:14:22;;;;;;;4.53;2.80;;;5.70;87.70;;;;;;5090618;28;20713;-49
2021/01/19 06:16:49;;;;;;;3.47;3.17;;;5.60;88.00;;;;;;5091073;28;21220;-48
2021/01/19 06:19:28;;;;;;;9.33;5.20;;;5.60;88.00;;;;;;5093483;28;20999;-48
2021/01/19 06:21:55;;;;;;;3.40;2.70;;;5.60;87.90;;;;;;5093631;28;20727;-48
2021/01/19 06:24:35;;;;;;;3.80;2.80;;;5.50;88.00;;;;;;5091731;28;20682;-49
2021/01/19 06:27:03;;;;;;;8.67;4.20;;;5.50;88.00;;;;;;5096178;28;20623;-47
2021/01/19 06:29:31;;;;;;;5.40;2.70;;;5.40;88.50;;;;;;5114177;28;20623;-49
2021/01/19 06:32:10;;;;;;;4.30;3.80;;;5.40;89.30;;;;;;5112884;28;20658;-50
2021/01/19 06:34:50;;;;;;;4.77;3.37;;;5.40;88.10;;;;;;5120701;28;20649;-49
2021/01/19 06:37:31;;;;;;;3.83;3.43;;;5.40;88.20;;;;;;5124398;28;20593;-51
2021/01/19 06:40:04;;;;;;;4.17;3.10;;;5.50;88.30;;;;;;5111804;28;20652;-48
2021/01/19 06:42:33;;;;;;;5.77;2.10;;;5.50;88.10;;;;;;5113744;28;20663;-50
2021/01/19 06:45:00;;;;;;;5.47;2.73;;;5.40;88.30;;;;;;5112366;28;20678;-47
2021/01/19 06:47:27;;;;;;;3.03;2.73;;;5.40;88.50;;;;;;5113235;28;21080;-49
2021/01/19 06:49:54;;;;;;;3.63;2.63;;;5.40;88.70;;;;;;5113372;27;20621;-49
2021/01/19 06:52:21;;;;;;;3.80;2.33;;;5.50;88.30;;;;;;5113759;28;20652;-48
2021/01/19 06:55:04;;;;;;;8.03;3.77;;;5.40;88.20;;;;;;5113476;28;20615;-46
2021/01/19 06:57:33;;;;;;;6.53;4.10;;;5.40;88.00;;;;;;5113191;28;20659;-48
2021/01/19 07:00:08;;;;;;;12.97;5.30;;;5.40;87.90;;;;;;5111696;28;20696;-48
2021/01/19 07:02:36;;;;;;;3.87;3.30;;;5.40;88.50;;;;;;5113396;28;21337;-48
2021/01/19 07:05:08;;;;;;;9.40;3.30;;;5.50;87.90;;;;;;5111978;28;21168;-48
2021/01/19 07:07:39;;;;;;;4.30;3.10;;;5.50;88.10;;;;;;5112985;28;20654;-49
2021/01/19 07:10:07;;;;;;;5.73;3.10;;;5.40;87.70;;;;;;5113421;28;20666;-48
2021/01/19 07:12:54;;;;;;;6.40;3.50;;;5.40;88.00;;;;;;5112757;27;21046;-49
2021/01/19 07:15:21;;;;;;;4.40;2.80;;;5.40;88.00;;;;;;5111747;28;20750;-50
2021/01/19 07:18:08;;;;;;;7.20;2.30;;;5.30;87.80;;;;;;5112739;28;20643;-48
2021/01/19 07:20:35;;;;;;;3.67;2.23;;;5.20;87.80;;;;;;5113170;28;21245;-48
2021/01/19 07:23:02;;;;;;;3.67;2.27;;;5.20;88.10;;;;;;5109678;28;20663;-49
2021/01/19 07:25:29;;;;;;;3.83;2.90;;;5.20;88.30;;;;;;5111386;28;20623;-49
2021/01/19 07:27:56;;;;;;;5.20;2.93;;;5.20;88.30;;;;;;5112996;28;20695;-49
2021/01/19 07:30:23;;;;;;;4.10;3.00;;;5.20;88.40;;;;;;5112659;28;20659;-49
2021/01/19 07:32:51;;;;;;;8.77;2.90;;;5.10;88.10;;;;;;5111001;28;20686;-49
2021/01/19 07:35:25;;;;;;;7.00;3.40;;;5.10;88.50;;;;;;5112403;28;20647;-50
2021/01/19 07:37:58;;;;;;;5.10;3.47;;;5.10;88.70;;;;;;5112143;28;20662;-49
2021/01/19 07:40:25;;;;;;;9.17;4.17;;;5.10;89.80;;;;;;5112356;28;20654;-49
2021/01/19 07:42:52;;;;;;;6.73;3.20;;;5.20;88.80;;;;;;5091767;28;20688;-49
2021/01/19 07:45:30;;;;;;;8.47;4.00;;;5.20;88.70;;;;;;5091571;28;20611;-49
2021/01/19 07:48:04;;;;;;;2.43;2.23;;;5.30;88.20;;;;;;5090936;28;21018;-49
2021/01/19 07:50:39;;;;;;;3.40;2.65;;;5.20;87.70;;;;;;5091950;28;20664;-50
2021/01/19 07:53:05;;;;;;;3.53;2.13;;;5.20;87.90;;;;;;5091733;28;20216;-49
2021/01/19 07:55:41;;;;;;;14.33;3.67;;;5.30;88.20;;;;;;5092047;28;20624;-49
2021/01/19 07:58:16;;;;;;;3.33;2.90;;;5.30;87.90;;;;;;5091847;28;20621;-48
2021/01/19 08:00:46;;;;;;;3.87;3.47;;;5.30;87.30;;;;;;5091575;28;20681;-49
2021/01/19 08:03:13;;;;;;;9.00;3.50;;;5.30;87.70;;;;;;5091777;28;20652;-49
2021/01/19 08:05:40;;;;;;;3.17;2.90;;;5.30;87.90;;;;;;5091653;28;20640;-50
2021/01/19 08:08:16;;;;;;;6.53;3.00;;;5.30;88.70;;;;;;5091403;28;20660;-50
2021/01/19 08:10:53;;;;;;;4.30;3.50;;;5.40;88.60;;;;;;5091521;28;20619;-49
2021/01/19 08:13:21;;;;;;;3.40;2.50;;;5.40;88.20;;;;;;5091514;28;20625;-48
2021/01/19 08:16:00;;;;;;;4.67;1.83;;;5.40;87.80;;;;;;5108226;28;20647;-48
2021/01/19 08:18:37;;;;;;;4.63;3.20;;;5.30;88.00;;;;;;5111622;28;20654;-48
2021/01/19 08:21:05;;;;;;;2.70;2.03;;;5.20;88.90;;;;;;5111518;27;21226;-49
2021/01/19 08:23:33;;;;;;;4.23;3.03;;;5.20;89.20;;;;;;5111765;28;21135;-49
2021/01/19 08:26:03;;;;;;;8.07;2.33;;;5.20;89.80;;;;;;5111494;28;20643;-49
2021/01/19 08:28:29;;;;;;;5.30;2.00;;;5.20;90.40;;;;;;5111375;28;20623;-49
2021/01/19 08:30:57;;;;;;;6.03;2.77;;;5.20;90.50;;;;;;5112083;28;20659;-49
2021/01/19 08:33:25;;;;;;;4.50;2.60;;;5.20;90.30;;;;;;5111389;28;20611;-50
2021/01/19 08:35:52;;;;;;;2.53;1.97;;;5.20;90.50;;;;;;5111291;28;20655;-49
2021/01/19 08:38:21;;;;;;;2.10;1.53;;;5.20;90.40;;;;;;5109768;28;20638;-50
2021/01/19 08:40:48;;;;;;;5.27;3.50;;;5.20;90.30;;;;;;5070922;28;20661;-50
2021/01/19 08:43:15;;;;;;;3.17;2.30;;;5.20;90.20;;;;;;5070612;28;20679;-48
2021/01/19 08:45:41;;;;;;;6.57;3.37;;;5.20;90.10;;;;;;5102403;28;20631;-50
2021/01/19 08:48:10;;;;;;;2.00;1.80;;;5.20;90.30;;;;;;5111444;28;21025;-50
2021/01/19 08:50:38;;;;;;;2.43;1.80;;;5.10;90.00;;;;;;5111832;28;20612;-50
2021/01/19 08:53:08;;;;;;;7.00;2.97;;;5.10;89.90;;;;;;5111020;28;20666;-50
2021/01/19 08:55:35;;;;;;;4.40;2.77;;;5.10;90.00;;;;;;5111590;28;20647;-50
2021/01/19 08:58:02;;;;;;;5.70;3.63;;;5.10;90.20;;;;;;5111561;28;20657;-50
2021/01/19 09:00:29;;;;;;;8.00;4.90;;;5.20;90.50;;;;;;5111454;28;20673;-49
2021/01/19 09:02:57;;;;;;;3.73;2.63;;;5.20;90.70;;;;;;5111146;28;21065;-50
2021/01/19 09:05:28;;;;;;;5.47;3.33;;;5.10;91.00;;;;;;5109658;28;20634;-48
2021/01/19 09:07:56;;;;;;;7.90;3.47;;;5.10;91.60;;;;;;5110799;28;20651;-49
2021/01/19 09:10:24;;;;;;;4.40;3.10;;;5.10;91.80;;;;;;5110854;28;20634;-49
2021/01/19 09:12:51;;;;;;;10.60;3.00;;;5.20;92.10;;;;;;5110980;28;20675;-48
2021/01/19 09:15:18;;;;;;;3.43;2.70;;;5.20;92.40;;;;;;5111070;28;21059;-49
2021/01/19 09:17:54;;;;;;;4.63;2.03;;;5.20;92.60;;;;;;5110373;28;20735;-49
2021/01/19 09:20:21;;;;;;;4.60;2.97;;;5.10;92.30;;;;;;5108668;28;20655;-49
2021/01/19 09:22:49;;;;;;;3.13;2.83;;;5.00;92.90;;;;;;5108938;28;20655;-50
2021/01/19 09:25:18;;;;;;;7.00;3.73;;;5.00;93.30;;;;;;5110728;28;20663;-50
2021/01/19 09:27:45;;;;;;;2.50;2.30;;;5.00;93.60;;;;;;5110470;28;20627;-48
2021/01/19 09:30:14;;;;;;;9.47;3.57;;;4.90;93.80;;;;;;5110958;28;20662;-49
2021/01/19 09:32:42;;;;;;;3.80;2.90;;;4.80;94.00;;;;;;5109714;28;20698;-49
2021/01/19 09:35:10;;;;;;;3.47;3.17;;;4.80;94.30;;;;;;5108864;28;20655;-50
2021/01/19 09:37:37;;;;;;;8.30;3.63;;;4.80;94.80;;;;;;5109952;28;20749;-49
2021/01/19 09:40:06;;;;;;;3.83;3.23;;;4.80;93.90;;;;;;5110567;28;20640;-50
2021/01/19 09:42:33;;;;;;;3.03;1.93;;;4.90;94.00;;;;;;5110328;28;20662;-49
2021/01/19 09:45:00;;;;;;;4.90;3.17;;;4.90;93.60;;;;;;5108937;28;20626;-50
2021/01/19 09:47:26;;;;;;;3.43;3.03;;;4.90;93.40;;;;;;5110153;28;20650;-49
2021/01/19 09:49:54;;;;;;;6.27;2.33;;;5.00;93.60;;;;;;5109304;28;20657;-49
2021/01/19 09:52:29;;;;;;;3.23;2.77;;;5.00;93.10;;;;;;5110406;28;20739;-48
2021/01/19 09:55:09;;;;;;;3.40;2.73;;;5.10;92.70;;;;;;5110693;28;20681;-49
2021/01/19 09:57:36;;;;;;;4.10;2.50;;;5.10;92.20;;;;;;5110953;28;20711;-49
2021/01/19 10:00:06;;;;;;;7.23;3.20;;;5.10;92.40;;;;;;5110951;28;20676;-49
2021/01/19 10:02:32;;;;;;;3.33;2.80;;;5.20;91.70;;;;;;5110101;28;20736;-49
2021/01/19 10:05:00;;;;;;;5.10;2.73;;;5.10;91.90;;;;;;5110195;28;21190;-49
2021/01/19 10:07:30;;;;;;;6.00;2.40;;;5.20;91.40;;;;;;5109580;28;20627;-48
2021/01/19 10:10:08;;;;;;;4.20;2.10;;;5.20;91.60;;;;;;5109335;28;20756;-48
2021/01/19 10:12:35;;;;;;;4.77;3.87;;;5.30;91.50;;;;;;5110047;28;20659;-49
2021/01/19 10:15:01;;;;;;;4.37;2.37;;;5.30;91.10;;;;;;5108475;28;20646;-49
2021/01/19 10:17:30;;;;;;;4.90;3.27;;;5.30;91.10;;;;;;5109899;28;20655;-49
2021/01/19 10:20:10;;;;;;;1.70;1.60;;;5.30;91.00;;;;;;5110766;28;20623;-50
2021/01/19 10:22:41;;;;;;;3.27;2.23;;;5.30;91.20;;;;;;5109970;28;21045;-50
2021/01/19 10:25:10;;;;;;;7.13;2.70;;;5.30;91.70;;;;;;5110020;28;20651;-50
2021/01/19 10:27:39;;;;;;;2.93;2.10;;;5.30;91.60;;;;;;5110104;28;20648;-50
2021/01/19 10:30:07;;;;;;;5.30;3.20;;;5.30;92.10;;;;;;5109968;28;20726;-50
2021/01/19 10:32:44;;;;;;;6.57;1.83;;;5.40;92.00;;;;;;5110299;28;20655;-50
2021/01/19 10:35:12;;;;;;;4.23;2.83;;;5.30;91.80;;;;;;5110078;28;20623;-49
2021/01/19 10:37:49;;;;;;;5.10;3.63;;;5.30;92.30;;;;;;5109579;28;20659;-48
2021/01/19 10:40:17;;;;;;;6.07;4.20;;;5.30;92.60;;;;;;5110534;28;20638;-50
2021/01/19 10:42:44;;;;;;;6.67;3.60;;;5.30;92.50;;;;;;5109527;28;20703;-49
2021/01/19 10:45:12;;;;;;;6.10;1.87;;;5.30;92.60;;;;;;5108639;28;20628;-48
2021/01/19 10:47:39;;;;;;;6.20;3.83;;;5.40;92.50;;;;;;5109636;28;20998;-49
2021/01/19 10:50:11;;;;;;;6.43;2.03;;;5.30;92.50;;;;;;5108546;28;21154;-50
2021/01/19 10:52:39;;;;;;;3.77;2.90;;;5.30;92.60;;;;;;5109187;28;21280;-49
2021/01/19 10:55:07;;;;;;;6.17;4.50;;;5.20;92.60;;;;;;5109551;28;20702;-49
2021/01/19 10:57:35;;;;;;;4.60;2.27;;;5.20;93.20;;;;;;5112281;28;21179;-50
2021/01/19 11:00:03;;;;;;;6.00;3.50;;;5.10;93.20;;;;;;5112982;28;20688;-49
2021/01/19 11:02:30;;;;;;;7.60;3.37;;;5.10;93.70;;;;;;5113174;28;20717;-49
2021/01/19 11:04:57;;;;;;;3.70;3.40;;;4.90;93.90;;;;;;5113175;28;20960;-48
2021/01/19 11:07:24;;;;;;;7.90;2.40;;;4.90;94.10;;;;;;5111901;28;20707;-48
2021/01/19 11:09:51;;;;;;;4.50;2.77;;;4.90;94.10;;;;;;5112872;27;20627;-51
2021/01/19 11:12:17;;;;;;;4.90;3.10;;;4.90;94.20;;;;;;5112843;27;20954;-48
2021/01/19 11:14:45;;;;;;;5.33;3.03;;;4.80;94.50;;;;;;5111942;28;21027;-49
2021/01/19 11:17:12;;;;;;;4.40;3.10;;;4.80;94.70;;;;;;5112964;28;20631;-49
2021/01/19 11:19:39;;;;;;;6.50;2.77;;;4.80;95.10;;;;;;5112822;28;20619;-49
2021/01/19 11:22:08;;;;;;;6.53;2.87;;;4.70;95.10;;;;;;5112663;28;20651;-48
2021/01/19 11:24:35;;;;;;;8.07;3.37;;;4.60;95.90;;;;;;5111592;28;21301;-48
2021/01/19 11:27:02;;;;;;;4.50;2.57;;;4.60;96.00;;;;;;5113092;28;20638;-49
2021/01/19 11:29:28;;;;;;;9.63;2.90;;;4.60;96.20;;;;;;5112484;28;20647;-48
2021/01/19 11:31:56;;;;;;;3.23;2.87;;;4.60;96.20;;;;;;5112796;28;21084;-50
2021/01/19 11:34:23;;;;;;;4.93;3.67;;;4.60;96.30;;;;;;5111932;28;21171;-50
2021/01/19 11:36:50;;;;;;;2.40;2.20;;;4.50;96.10;;;;;;5112297;28;20623;-50
2021/01/19 11:39:17;;;;;;;7.30;3.50;;;4.40;96.40;;;;;;5112594;28;20676;-50
2021/01/19 11:41:43;;;;;;;3.43;3.13;;;4.40;96.40;;;;;;5112476;28;20666;-50
2021/01/19 11:44:11;;;;;;;2.63;2.40;;;4.40;96.50;;;;;;5112951;28;20687;-50
2021/01/19 11:46:38;;;;;;;8.93;4.93;;;4.40;96.60;;;;;;5111598;28;20615;-50
2021/01/19 11:49:07;;;;;;;2.70;2.50;;;4.30;96.60;;;;;;5112561;28;20688;-49
2021/01/19 11:51:34;;;;;;;4.60;3.40;;;4.40;96.80;;;;;;5112616;28;20645;-49
2021/01/19 11:54:02;;;;;;;5.60;4.90;;;4.40;97.00;;;;;;5112554;28;20719;-49
2021/01/19 11:56:33;;;;;;;15.10;5.83;;;4.40;96.90;;;;;;5112574;28;21119;-49
2021/01/19 11:59:00;;;;;;;3.83;2.73;;;4.50;96.90;;;;;;5112193;28;20647;-49
2021/01/19 12:01:27;;;;;;;5.20;3.50;;;4.40;96.80;;;;;;5111914;28;20686;-49
2021/01/19 12:03:53;;;;;;;4.00;3.53;;;4.40;96.80;;;;;;5112737;28;20683;-49
2021/01/19 12:06:21;;;;;;;4.80;3.00;;;4.30;97.10;;;;;;5112207;28;20654;-50
2021/01/19 12:08:48;;;;;;;4.93;3.93;;;4.20;97.40;;;;;;5111277;28;20643;-49
2021/01/19 12:11:15;;;;;;;6.70;3.60;;;4.10;97.20;;;;;;5111301;28;20694;-49
2021/01/19 12:13:42;;;;;;;3.67;3.00;;;4.20;97.60;;;;;;5112247;28;20627;-50
2021/01/19 12:16:10;;;;;;;6.20;3.60;;;4.10;97.60;;;;;;5112538;28;20970;-49
2021/01/19 12:18:37;;;;;;;5.73;4.37;;;4.20;97.50;;;;;;5112714;28;20627;-51
2021/01/19 12:21:05;;;;;;;4.63;3.20;;;4.20;97.90;;;;;;5112630;28;20696;-50
2021/01/19 12:23:32;;;;;;;5.67;3.30;;;4.20;97.80;;;;;;5110337;28;21042;-48
2021/01/19 12:25:59;;;;;;;2.87;2.63;;;4.20;97.70;;;;;;5112267;28;20694;-48
2021/01/19 12:28:26;;;;;;;2.80;2.60;;;4.10;97.70;;;;;;5110722;28;21002;-48
2021/01/19 12:30:53;;;;;;;8.40;5.20;;;4.00;98.20;;;;;;5111998;28;20623;-50
2021/01/19 12:33:20;;;;;;;7.60;3.63;;;4.00;98.20;;;;;;5112731;28;20918;-49
2021/01/19 12:35:47;;;;;;;5.88;4.32;;;4.00;98.50;;;;;;5111687;28;21154;-50
2021/01/19 12:38:14;;;;;;;7.50;5.17;;;4.00;98.60;;;;;;5111652;28;20678;-49
2021/01/19 12:40:42;;;;;;;6.83;4.13;;;4.10;99.00;;;;;;5112178;28;20628;-49
2021/01/19 12:43:09;;;;;;;8.23;4.30;;;4.10;99.00;;;;;;5111531;28;20667;-49
2021/01/19 12:45:36;;;;;;;5.17;4.73;;;4.10;98.80;;;;;;5110484;28;20623;-49
2021/01/19 12:48:03;;;;;;;6.00;5.40;;;4.10;98.90;;;;;;5111352;28;20985;-50
2021/01/19 12:50:30;;;;;;;7.00;3.67;;;4.10;99.10;;;;;;5111651;28;20680;-50
2021/01/19 12:53:00;;;;;;;4.63;2.95;;;4.10;99.20;;;;;;5111023;28;20804;-49
2021/01/19 12:55:27;;;;;;;5.27;4.77;;;4.10;99.30;;;;;;5111139;28;20213;-49
2021/01/19 12:57:57;;;;;;;9.90;4.20;;;4.20;99.30;;;;;;5110988;28;20684;-49
2021/01/19 13:00:24;;;;;;;4.40;4.00;;;4.20;99.30;;;;;;5110815;28;20722;-49
2021/01/19 13:02:51;;;;;;;2.80;2.53;;;4.20;99.30;;;;;;5111235;28;20639;-49